createdAt,value
2023-03-24T00:01:02.632Z,1.40
2023-03-24T00:03:33.536Z,0.40
2023-03-24T00:06:02.950Z,0.40
2023-03-24T00:08:31.534Z,0.50
2023-03-24T00:11:01.282Z,0.57
2023-03-24T00:13:29.403Z,0.40
2023-03-24T00:15:57.538Z,0.40
2023-03-24T00:18:25.947Z,0.40
2023-03-24T00:20:58.703Z,0.30
2023-03-24T00:23:27.855Z,0.40
2023-03-24T00:26:02.943Z,0.60
2023-03-24T00:28:33.247Z,0.40
2023-03-24T00:31:02.032Z,0.60
2023-03-24T00:33:31.632Z,0.50
2023-03-24T00:36:01.774Z,0.40
2023-03-24T00:38:30.164Z,0.47
2023-03-24T00:40:58.835Z,0.40
2023-03-24T00:43:26.652Z,0.40
2023-03-24T00:46:01.775Z,0.50
2023-03-24T00:48:30.710Z,0.60
2023-03-24T00:51:02.629Z,3.23
2023-03-24T00:53:30.642Z,0.50
2023-03-24T00:55:59.907Z,0.40
2023-03-24T00:58:29.906Z,0.30
2023-03-24T01:00:59.093Z,0.40
2023-03-24T01:03:27.864Z,0.60
2023-03-24T01:05:58.334Z,0.43
2023-03-24T01:08:28.356Z,0.70
2023-03-24T01:10:57.228Z,0.70
2023-03-24T01:13:26.867Z,0.40
2023-03-24T01:15:55.481Z,0.40
2023-03-24T01:18:24.671Z,0.40
2023-03-24T01:20:54.373Z,0.40
2023-03-24T01:23:23.829Z,0.37
2023-03-24T01:25:54.168Z,0.40
2023-03-24T01:28:24.969Z,0.40
2023-03-24T01:30:53.618Z,0.30
2023-03-24T01:33:22.104Z,0.40
2023-03-24T01:35:50.422Z,0.70
2023-03-24T01:38:18.532Z,0.40
2023-03-24T01:40:47.789Z,0.30
2023-03-24T01:43:21.516Z,0.30
2023-03-24T01:46:17.129Z,0.40
2023-03-24T01:48:49.665Z,0.50
2023-03-24T01:51:20.630Z,0.97
2023-03-24T01:53:54.208Z,0.50
2023-03-24T01:56:22.886Z,0.33
2023-03-24T01:59:03.465Z,0.50
2023-03-24T02:01:39.694Z,0.50
2023-03-24T02:04:21.237Z,0.93
2023-03-24T02:06:49.195Z,0.40
2023-03-24T02:09:17.140Z,0.50
2023-03-24T02:11:45.655Z,0.40
2023-03-24T02:14:15.456Z,0.40
2023-03-24T02:17:05.236Z,0.30
2023-03-24T02:20:16.386Z,0.40
2023-03-24T02:23:14.364Z,0.50
2023-03-24T02:26:03.947Z,0.53
2023-03-24T02:28:48.455Z,0.40
2023-03-24T02:31:41.958Z,0.70
2023-03-24T02:34:42.177Z,0.50
2023-03-24T02:37:45.381Z,0.50
2023-03-24T02:40:27.718Z,0.40
2023-03-24T02:43:12.646Z,0.70
2023-03-24T02:45:48.879Z,0.87
2023-03-24T02:48:29.811Z,0.40
2023-03-24T02:51:07.651Z,0.33
2023-03-24T02:53:43.646Z,0.40
2023-03-24T02:56:38.262Z,0.40
2023-03-24T02:59:19.325Z,0.57
2023-03-24T03:01:54.949Z,0.40
2023-03-24T03:04:49.754Z,0.43
2023-03-24T03:07:22.637Z,0.50
2023-03-24T03:09:56.415Z,0.40
2023-03-24T03:12:29.644Z,0.50
2023-03-24T03:15:01.094Z,0.40
2023-03-24T03:17:33.910Z,0.40
2023-03-24T03:20:08.127Z,0.50
2023-03-24T03:22:43.832Z,0.60
2023-03-24T03:25:16.504Z,0.67
2023-03-24T03:27:46.918Z,0.40
2023-03-24T03:30:19.415Z,0.60
2023-03-24T03:32:54.589Z,0.97
2023-03-24T03:35:27.745Z,0.43
2023-03-24T03:38:02.926Z,0.60
2023-03-24T03:40:35.051Z,0.40
2023-03-24T03:43:11.733Z,0.40
2023-03-24T03:45:39.852Z,0.60
2023-03-24T03:48:08.119Z,1.00
2023-03-24T03:50:38.066Z,0.50
2023-03-24T03:53:09.556Z,0.50
2023-03-24T03:55:38.140Z,0.50
2023-03-24T03:58:06.492Z,0.40
2023-03-24T04:00:46.560Z,0.40
2023-03-24T04:03:54.134Z,0.50
2023-03-24T04:06:38.521Z,1.33
2023-03-24T04:09:19.127Z,0.40
2023-03-24T04:12:12.840Z,0.40
2023-03-24T04:15:24.146Z,2.30
2023-03-24T04:18:43.110Z,0.43
2023-03-24T04:21:28.262Z,0.40
2023-03-24T04:24:10.273Z,0.53
2023-03-24T04:26:45.285Z,0.60
2023-03-24T04:29:20.932Z,0.50
2023-03-24T04:31:53.377Z,0.40
2023-03-24T04:34:29.141Z,0.70
2023-03-24T04:37:12.414Z,0.60
2023-03-24T04:39:58.871Z,0.50
2023-03-24T04:42:33.309Z,0.33
2023-03-24T04:45:03.123Z,1.00
2023-03-24T04:48:05.399Z,0.40
2023-03-24T04:50:53.733Z,0.70
2023-03-24T04:53:22.031Z,0.50
2023-03-24T04:56:04.212Z,0.73
2023-03-24T04:58:50.714Z,0.40
2023-03-24T05:01:21.202Z,0.50
2023-03-24T05:04:05.566Z,0.30
2023-03-24T05:06:34.730Z,0.50
2023-03-24T05:09:02.559Z,0.50
2023-03-24T05:11:34.632Z,0.40
2023-03-24T05:14:08.126Z,0.47
2023-03-24T05:16:36.544Z,0.43
2023-03-24T05:19:05.855Z,0.60
2023-03-24T05:21:35.850Z,0.70
2023-03-24T05:24:05.367Z,0.47
2023-03-24T05:26:34.437Z,0.50
2023-03-24T05:29:10.855Z,0.40
2023-03-24T05:31:40.350Z,0.90
2023-03-24T05:34:13.758Z,0.60
2023-03-24T05:36:53.460Z,0.50
2023-03-24T05:39:23.575Z,1.00
2023-03-24T05:41:58.245Z,0.40
2023-03-24T05:44:26.192Z,0.87
2023-03-24T05:47:05.042Z,0.40
2023-03-24T05:49:32.899Z,0.40
2023-03-24T05:52:03.261Z,0.40
2023-03-24T05:54:31.238Z,0.70
2023-03-24T05:57:08.891Z,0.40
2023-03-24T05:59:53.133Z,0.50
2023-03-24T06:02:40.959Z,0.67
2023-03-24T06:05:22.657Z,0.40
2023-03-24T06:07:51.823Z,0.30
2023-03-24T06:10:20.218Z,0.57
2023-03-24T06:12:52.183Z,0.60
2023-03-24T06:15:20.184Z,0.50
2023-03-24T06:17:50.537Z,0.50
2023-03-24T06:20:27.980Z,0.60
2023-03-24T06:23:03.191Z,0.80
2023-03-24T06:25:54.455Z,0.60
2023-03-24T06:28:25.982Z,0.40
2023-03-24T06:30:56.490Z,0.40
2023-03-24T06:33:31.781Z,0.50
2023-03-24T06:36:01.760Z,2.10
2023-03-24T06:38:33.382Z,0.60
2023-03-24T06:41:02.103Z,0.50
2023-03-24T06:43:30.906Z,0.40
2023-03-24T06:45:59.174Z,1.03
2023-03-24T06:48:29.291Z,0.40
2023-03-24T06:51:03.702Z,0.50
2023-03-24T06:53:32.801Z,0.80
2023-03-24T06:56:01.181Z,0.60
2023-03-24T06:58:36.566Z,1.10
2023-03-24T07:01:16.671Z,0.40
2023-03-24T07:03:53.813Z,0.50
2023-03-24T07:06:50.616Z,0.50
2023-03-24T07:09:25.918Z,0.50
2023-03-24T07:11:53.714Z,0.30
2023-03-24T07:14:25.979Z,0.40
2023-03-24T07:16:54.622Z,1.13
2023-03-24T07:19:25.212Z,0.50
2023-03-24T07:22:10.091Z,0.60
2023-03-24T07:25:01.514Z,0.50
2023-03-24T07:27:44.905Z,0.50
2023-03-24T07:30:14.589Z,0.40
2023-03-24T07:32:45.223Z,0.40
2023-03-24T07:35:14.120Z,0.40
2023-03-24T07:37:41.893Z,1.03
2023-03-24T07:40:13.120Z,0.60
2023-03-24T07:42:41.948Z,0.53
2023-03-24T07:45:29.049Z,0.50
2023-03-24T07:48:01.847Z,0.50
2023-03-24T07:50:33.284Z,0.33
2023-03-24T07:53:05.737Z,0.40
2023-03-24T07:55:34.826Z,0.40
2023-03-24T07:58:09.927Z,0.40
2023-03-24T08:00:40.306Z,0.40
2023-03-24T08:03:28.471Z,0.50
2023-03-24T08:06:15.668Z,0.40
2023-03-24T08:08:51.827Z,1.93
2023-03-24T08:11:20.990Z,1.00
2023-03-24T08:13:49.196Z,0.83
2023-03-24T08:16:17.034Z,0.70
2023-03-24T08:18:44.893Z,0.40
2023-03-24T08:21:12.655Z,1.33
2023-03-24T08:23:41.359Z,0.40
2023-03-24T08:26:10.662Z,0.47
2023-03-24T08:28:39.842Z,0.40
2023-03-24T08:31:07.770Z,0.63
2023-03-24T08:33:36.497Z,0.40
2023-03-24T08:36:04.927Z,0.97
2023-03-24T08:38:32.791Z,0.50
2023-03-24T08:41:02.040Z,0.60
2023-03-24T08:43:31.153Z,0.50
2023-03-24T08:46:01.522Z,1.73
2023-03-24T08:48:30.884Z,0.93
2023-03-24T08:50:58.642Z,0.70
2023-03-24T08:53:26.485Z,0.50
2023-03-24T08:55:54.495Z,0.50
2023-03-24T08:58:22.983Z,0.60
2023-03-24T09:00:52.019Z,0.50
2023-03-24T09:03:22.454Z,0.60
2023-03-24T09:05:50.949Z,0.50
2023-03-24T09:08:19.983Z,0.50
2023-03-24T09:10:47.856Z,0.60
2023-03-24T09:13:16.457Z,1.17
2023-03-24T09:15:47.540Z,0.43
2023-03-24T09:18:16.560Z,0.40
2023-03-24T09:20:46.642Z,0.83
2023-03-24T09:23:15.140Z,0.40
2023-03-24T09:25:43.002Z,0.60
2023-03-24T09:28:10.838Z,0.50
2023-03-24T09:30:38.853Z,1.60
2023-03-24T09:33:06.652Z,1.90
2023-03-24T09:35:34.549Z,0.50
2023-03-24T09:38:03.996Z,0.40
2023-03-24T09:40:34.181Z,0.60
2023-03-24T09:43:06.502Z,0.40
2023-03-24T09:45:37.895Z,0.90
2023-03-24T09:48:13.158Z,0.47
2023-03-24T09:50:47.769Z,0.40
2023-03-24T09:53:28.576Z,0.33
2023-03-24T09:55:56.726Z,1.27
2023-03-24T09:58:28.644Z,0.93
2023-03-24T10:00:57.678Z,0.60
2023-03-24T10:03:25.774Z,0.70
2023-03-24T10:05:57.018Z,0.40
2023-03-24T10:08:32.894Z,0.40
2023-03-24T10:11:04.322Z,0.50
2023-03-24T10:13:44.661Z,1.00
2023-03-24T10:16:19.873Z,0.50
2023-03-24T10:18:56.957Z,0.40
2023-03-24T10:21:28.435Z,0.40
2023-03-24T10:24:07.572Z,0.60
2023-03-24T10:26:41.517Z,0.70
2023-03-24T10:29:22.840Z,0.40
2023-03-24T10:31:55.281Z,0.57
2023-03-24T10:34:29.134Z,0.50
2023-03-24T10:36:59.009Z,0.50
2023-03-24T10:39:38.090Z,0.40
2023-03-24T10:42:16.656Z,0.53
2023-03-24T10:44:44.864Z,7.10
2023-03-24T10:47:15.183Z,7.13
2023-03-24T10:49:54.813Z,2.60
2023-03-24T10:52:24.437Z,3.90
2023-03-24T10:54:58.585Z,5.83
2023-03-24T10:57:28.470Z,7.63
2023-03-24T10:59:59.550Z,6.00
2023-03-24T11:02:30.541Z,4.67
2023-03-24T11:05:02.477Z,3.17
2023-03-24T11:07:34.668Z,1.90
2023-03-24T11:10:07.401Z,3.37
2023-03-24T11:12:37.894Z,2.60
2023-03-24T11:15:21.092Z,2.20
2023-03-24T11:17:55.820Z,1.90
2023-03-24T11:20:29.602Z,1.73
2023-03-24T11:23:00.841Z,0.90
2023-03-24T11:25:34.260Z,1.57
2023-03-24T11:28:04.276Z,2.93
2023-03-24T11:30:36.618Z,2.20
2023-03-24T11:33:06.238Z,2.53
2023-03-24T11:35:41.608Z,1.03
2023-03-24T11:38:16.280Z,2.50
2023-03-24T11:40:54.698Z,3.07
2023-03-24T11:43:23.205Z,0.80
2023-03-24T11:45:59.878Z,1.50
2023-03-24T11:48:32.667Z,2.70
2023-03-24T11:51:02.182Z,1.73
2023-03-24T11:53:39.533Z,0.60
2023-03-24T11:56:14.087Z,0.70
2023-03-24T11:58:47.007Z,1.33
2023-03-24T12:01:26.431Z,1.20
2023-03-24T12:04:07.338Z,0.60
2023-03-24T12:06:46.234Z,0.80
2023-03-24T12:09:23.812Z,0.40
2023-03-24T12:12:08.148Z,0.50
2023-03-24T12:14:48.540Z,1.43
2023-03-24T12:17:18.504Z,0.60
2023-03-24T12:19:58.002Z,1.07
2023-03-24T12:22:41.122Z,0.80
2023-03-24T12:25:31.366Z,0.50
2023-03-24T12:28:12.659Z,0.70
2023-03-24T12:30:49.197Z,1.00
2023-03-24T12:33:33.817Z,1.80
2023-03-24T12:36:17.271Z,0.87
2023-03-24T12:39:01.134Z,1.93
2023-03-24T12:41:41.199Z,0.70
2023-03-24T12:44:23.827Z,0.60
2023-03-24T12:47:01.703Z,0.80
2023-03-24T12:49:52.860Z,1.60
2023-03-24T12:52:58.050Z,0.40
2023-03-24T12:55:41.664Z,0.50
2023-03-24T12:58:15.380Z,0.40
2023-03-24T13:00:52.474Z,1.60
2023-03-24T13:03:28.157Z,0.40
2023-03-24T13:06:07.405Z,0.40
2023-03-24T13:08:49.277Z,0.50
2023-03-24T13:11:32.304Z,1.33
2023-03-24T13:14:03.309Z,1.23
2023-03-24T13:16:36.642Z,0.67
2023-03-24T13:19:05.649Z,0.80
2023-03-24T13:21:35.238Z,0.40
2023-03-24T13:24:09.368Z,0.63
2023-03-24T13:26:40.299Z,0.40
2023-03-24T13:29:22.915Z,0.40
2023-03-24T13:31:58.391Z,0.50
2023-03-24T13:34:29.691Z,0.40
2023-03-24T13:37:02.522Z,0.87
2023-03-24T13:39:32.133Z,0.43
2023-03-24T13:42:01.377Z,0.70
2023-03-24T13:44:38.478Z,0.60
2023-03-24T13:47:16.696Z,0.77
2023-03-24T13:49:54.188Z,2.33
2023-03-24T13:52:28.448Z,0.60
2023-03-24T13:54:59.436Z,1.33
2023-03-24T13:57:27.893Z,0.87
2023-03-24T14:00:09.011Z,0.60
2023-03-24T14:02:51.220Z,0.37
2023-03-24T14:05:58.171Z,1.53
2023-03-24T14:08:43.642Z,0.40
2023-03-24T14:11:42.745Z,0.40
2023-03-24T14:14:19.595Z,0.37
2023-03-24T14:16:53.173Z,0.40
2023-03-24T14:19:27.785Z,0.63
2023-03-24T14:22:10.418Z,0.70
2023-03-24T14:24:38.678Z,0.60
2023-03-24T14:27:32.843Z,0.73
2023-03-24T14:30:03.875Z,0.70
2023-03-24T14:32:37.892Z,0.50
2023-03-24T14:35:23.205Z,0.40
2023-03-24T14:37:54.061Z,0.63
2023-03-24T14:40:34.371Z,0.30
2023-03-24T14:43:22.853Z,2.00
2023-03-24T14:46:01.477Z,0.50
2023-03-24T14:48:44.550Z,1.17
2023-03-24T14:51:36.129Z,1.27
2023-03-24T14:54:06.637Z,0.50
2023-03-24T14:56:40.252Z,0.40
2023-03-24T14:59:17.556Z,0.83
2023-03-24T15:01:49.060Z,1.27
2023-03-24T15:04:16.970Z,0.40
2023-03-24T15:06:47.008Z,0.40
2023-03-24T15:09:17.343Z,0.50
2023-03-24T15:11:47.578Z,0.40
2023-03-24T15:14:22.788Z,0.40
2023-03-24T15:16:59.488Z,0.40
2023-03-24T15:19:30.378Z,1.60
2023-03-24T15:22:01.972Z,1.07
2023-03-24T15:24:35.135Z,0.73
2023-03-24T15:27:21.083Z,0.40
2023-03-24T15:29:55.953Z,0.50
2023-03-24T15:32:27.251Z,0.50
2023-03-24T15:34:57.188Z,0.33
2023-03-24T15:37:32.699Z,0.40
2023-03-24T15:40:13.229Z,0.80
2023-03-24T15:42:45.861Z,0.47
2023-03-24T15:45:22.624Z,0.40
2023-03-24T15:47:52.798Z,0.30
2023-03-24T15:50:32.116Z,0.40
2023-03-24T15:53:03.536Z,0.70
2023-03-24T15:55:34.590Z,0.40
2023-03-24T15:58:19.200Z,0.40
2023-03-24T16:00:47.361Z,0.40
2023-03-24T16:03:17.632Z,1.50
2023-03-24T16:05:51.230Z,0.40
2023-03-24T16:08:28.329Z,0.40
2023-03-24T16:11:01.318Z,0.37
2023-03-24T16:13:29.507Z,0.60
2023-03-24T16:15:59.507Z,1.10
2023-03-24T16:18:32.879Z,0.50
2023-03-24T16:21:01.374Z,0.67
2023-03-24T16:23:31.343Z,0.40
2023-03-24T16:25:59.109Z,0.40
2023-03-24T16:28:27.629Z,0.40
2023-03-24T16:31:00.934Z,0.40
2023-03-24T16:33:30.201Z,2.30
2023-03-24T16:35:58.101Z,0.40
2023-03-24T16:38:26.494Z,0.50
2023-03-24T16:40:57.895Z,0.30
2023-03-24T16:43:27.513Z,0.37
2023-03-24T16:45:55.332Z,0.70
2023-03-24T16:48:23.128Z,0.30
2023-03-24T16:50:53.303Z,0.40
2023-03-24T16:53:21.238Z,0.30
2023-03-24T16:55:49.124Z,0.40
2023-03-24T16:58:18.806Z,0.33
2023-03-24T17:00:48.916Z,0.70
2023-03-24T17:03:17.938Z,0.40
2023-03-24T17:05:48.212Z,0.30
2023-03-24T17:08:16.515Z,0.33
2023-03-24T17:10:46.286Z,0.40
2023-03-24T17:13:20.569Z,0.70
2023-03-24T17:15:48.874Z,0.37
2023-03-24T17:18:16.683Z,0.40
2023-03-24T17:20:44.560Z,0.80
2023-03-24T17:23:15.636Z,0.50
2023-03-24T17:25:43.441Z,0.33
2023-03-24T17:28:14.473Z,0.40
2023-03-24T17:30:43.897Z,0.60
2023-03-24T17:33:14.493Z,0.40
2023-03-24T17:35:46.388Z,0.40
2023-03-24T17:38:15.024Z,0.30
2023-03-24T17:40:43.132Z,0.40
2023-03-24T17:43:11.140Z,0.70
2023-03-24T17:45:40.836Z,0.50
2023-03-24T17:48:10.004Z,0.77
2023-03-24T17:50:37.839Z,0.40
2023-03-24T17:53:06.042Z,1.43
2023-03-24T17:55:33.845Z,0.87
2023-03-24T17:58:02.338Z,1.07
2023-03-24T18:00:30.272Z,0.40
2023-03-24T18:02:58.360Z,0.40
2023-03-24T18:05:27.525Z,1.03
2023-03-24T18:07:55.295Z,0.80
2023-03-24T18:10:23.065Z,0.50
2023-03-24T18:12:52.542Z,0.40
2023-03-24T18:15:20.425Z,0.70
2023-03-24T18:17:48.207Z,1.27
2023-03-24T18:20:16.195Z,0.70
2023-03-24T18:22:45.556Z,0.87
2023-03-24T18:25:14.336Z,0.70
2023-03-24T18:27:42.305Z,0.50
2023-03-24T18:30:12.778Z,0.40
2023-03-24T18:32:41.068Z,1.23
2023-03-24T18:35:11.290Z,1.60
2023-03-24T18:37:39.045Z,0.50
2023-03-24T18:40:09.964Z,0.50
2023-03-24T18:42:38.378Z,0.40
2023-03-24T18:45:08.042Z,0.43
2023-03-24T18:47:36.461Z,0.40
2023-03-24T18:50:04.481Z,0.43
2023-03-24T18:52:32.978Z,0.40
2023-03-24T18:55:02.337Z,0.50
2023-03-24T18:57:33.203Z,0.40
2023-03-24T19:00:01.178Z,0.57
2023-03-24T19:02:29.128Z,0.40
2023-03-24T19:04:56.920Z,0.50
2023-03-24T19:07:26.164Z,1.07
2023-03-24T19:09:55.254Z,0.60
2023-03-24T19:12:23.019Z,0.40
2023-03-24T19:14:54.048Z,0.80
2023-03-24T19:17:23.497Z,0.37
2023-03-24T19:19:51.323Z,0.30
2023-03-24T19:22:21.968Z,0.40
2023-03-24T19:24:49.799Z,0.50
2023-03-24T19:27:18.800Z,0.40
2023-03-24T19:29:47.443Z,0.40
2023-03-24T19:32:16.542Z,0.53
2023-03-24T19:34:44.333Z,1.23
2023-03-24T19:37:13.880Z,0.70
2023-03-24T19:39:41.804Z,0.70
2023-03-24T19:42:09.551Z,1.13
2023-03-24T19:44:37.558Z,0.40
2023-03-24T19:47:06.113Z,0.47
2023-03-24T19:49:35.832Z,0.30
2023-03-24T19:52:03.858Z,0.40
2023-03-24T19:54:31.664Z,0.40
2023-03-24T19:56:59.518Z,0.63
2023-03-24T19:59:27.451Z,0.50
2023-03-24T20:01:55.347Z,0.40
2023-03-24T20:04:23.975Z,0.57
2023-03-24T20:06:53.181Z,0.50
2023-03-24T20:09:20.956Z,0.77
2023-03-24T20:11:48.752Z,1.00
2023-03-24T20:14:18.361Z,0.57
2023-03-24T20:16:46.119Z,0.97
2023-03-24T20:19:13.976Z,0.90
2023-03-24T20:21:41.738Z,0.40
2023-03-24T20:24:11.777Z,1.33
2023-03-24T20:26:39.572Z,1.10
2023-03-24T20:29:07.414Z,0.47
2023-03-24T20:31:36.132Z,1.10
2023-03-24T20:34:04.025Z,0.70
2023-03-24T20:36:32.307Z,0.40
2023-03-24T20:39:01.925Z,0.50
2023-03-24T20:41:31.150Z,0.90
2023-03-24T20:43:59.047Z,0.47
2023-03-24T20:46:26.847Z,0.60
2023-03-24T20:48:54.689Z,0.50
2023-03-24T20:51:22.450Z,0.63
2023-03-24T20:53:50.358Z,0.50
2023-03-24T20:56:18.925Z,0.70
2023-03-24T20:58:48.143Z,0.40
2023-03-24T21:01:20.459Z,1.53
2023-03-24T21:03:48.776Z,1.53
2023-03-24T21:06:17.367Z,1.43
2023-03-24T21:08:45.702Z,0.73
2023-03-24T21:11:14.023Z,0.60
2023-03-24T21:13:41.797Z,0.40
2023-03-24T21:16:12.317Z,1.40
2023-03-24T21:18:42.531Z,0.80
2023-03-24T21:21:12.230Z,1.13
2023-03-24T21:23:40.796Z,0.80
2023-03-24T21:26:11.253Z,0.80
2023-03-24T21:28:40.088Z,1.03
2023-03-24T21:31:11.482Z,0.53
2023-03-24T21:33:40.757Z,1.03
2023-03-24T21:36:10.170Z,0.40
2023-03-24T21:38:38.957Z,0.50
2023-03-24T21:41:07.822Z,0.50
2023-03-24T21:43:35.741Z,0.77
2023-03-24T21:46:04.053Z,0.73
2023-03-24T21:48:34.802Z,0.40
2023-03-24T21:51:03.845Z,0.40
2023-03-24T21:53:31.907Z,0.70
2023-03-24T21:56:04.267Z,0.30
2023-03-24T21:58:32.451Z,0.40
2023-03-24T22:01:00.658Z,0.40
2023-03-24T22:03:30.283Z,0.50
2023-03-24T22:05:59.504Z,1.03
2023-03-24T22:08:30.451Z,0.40
2023-03-24T22:10:58.925Z,0.60
2023-03-24T22:13:27.390Z,0.40
2023-03-24T22:15:56.132Z,0.60
2023-03-24T22:18:24.575Z,0.60
2023-03-24T22:20:56.728Z,0.33
2023-03-24T22:23:26.300Z,1.07
2023-03-24T22:25:54.076Z,0.40
2023-03-24T22:28:21.885Z,0.50
2023-03-24T22:30:49.651Z,0.60
2023-03-24T22:33:17.658Z,0.40
2023-03-24T22:35:45.700Z,0.43
2023-03-24T22:38:15.883Z,0.40
2023-03-24T22:40:44.972Z,0.50
2023-03-24T22:43:12.779Z,0.40
2023-03-24T22:45:40.584Z,0.57
2023-03-24T22:48:08.342Z,0.40
2023-03-24T22:50:36.138Z,0.30
2023-03-24T22:53:03.919Z,0.40
2023-03-24T22:55:31.676Z,0.70
2023-03-24T22:58:00.922Z,0.43
2023-03-24T23:00:30.381Z,0.40
2023-03-24T23:02:59.268Z,0.50
2023-03-24T23:05:27.139Z,0.50
2023-03-24T23:07:55.137Z,0.60
2023-03-24T23:10:22.919Z,1.20
2023-03-24T23:12:51.864Z,0.70
2023-03-24T23:15:23.105Z,0.40
2023-03-24T23:17:52.138Z,1.13
2023-03-24T23:20:20.919Z,0.37
2023-03-24T23:22:48.975Z,0.40
2023-03-24T23:25:18.840Z,0.40
2023-03-24T23:27:47.085Z,0.50
2023-03-24T23:30:16.280Z,0.30
2023-03-24T23:32:46.783Z,0.40
2023-03-24T23:35:15.454Z,0.73
2023-03-24T23:37:43.819Z,1.20
2023-03-24T23:40:15.034Z,0.43
2023-03-24T23:42:44.667Z,0.40
2023-03-24T23:45:15.035Z,0.50
2023-03-24T23:47:46.028Z,0.50
2023-03-24T23:50:14.087Z,0.77
2023-03-24T23:52:43.852Z,1.30
2023-03-24T23:55:11.884Z,0.40
2023-03-24T23:57:39.918Z,0.60
